createdAt,value
2019-03-18T00:00:02.021Z,100.38
2019-03-18T00:02:32.139Z,101.90
2019-03-18T00:05:00.345Z,95.03
2019-03-18T00:07:28.382Z,103.47
2019-03-18T00:09:56.247Z,102.27
2019-03-18T00:12:24.324Z,111.80
2019-03-18T00:15:01.262Z,107.92
2019-03-18T00:17:21.899Z,107.20
2019-03-18T00:19:49.864Z,101.87
2019-03-18T00:22:17.670Z,104.60
2019-03-18T00:24:45.499Z,97.10
2019-03-18T00:27:13.261Z,93.30
2019-03-18T00:29:41.027Z,94.65
2019-03-18T00:32:08.888Z,93.67
2019-03-18T00:34:36.657Z,95.67
2019-03-18T00:37:04.518Z,104.17
2019-03-18T00:39:32.384Z,91.63
2019-03-18T00:42:00.258Z,97.67
2019-03-18T00:44:28.013Z,99.17
2019-03-18T00:46:55.780Z,105.17
2019-03-18T00:49:23.537Z,104.80
2019-03-18T00:51:51.508Z,112.10
2019-03-18T00:54:19.888Z,103.42
2019-03-18T00:56:47.958Z,105.63
2019-03-18T00:59:15.723Z,114.67
2019-03-18T01:01:44.203Z,111.65
2019-03-18T01:04:11.866Z,121.97
2019-03-18T01:06:39.730Z,120.05
2019-03-18T01:09:07.596Z,122.62
2019-03-18T01:11:35.362Z,127.15
2019-03-18T01:14:03.119Z,132.50
2019-03-18T01:16:30.886Z,122.65
2019-03-18T01:18:58.650Z,126.10
2019-03-18T01:21:26.413Z,114.08
2019-03-18T01:23:54.176Z,116.73
2019-03-18T01:26:21.947Z,119.82
2019-03-18T01:28:49.881Z,116.60
2019-03-18T01:31:17.672Z,117.40
2019-03-18T01:33:45.435Z,96.78
2019-03-18T01:36:13.302Z,115.37
2019-03-18T01:38:41.177Z,113.08
2019-03-18T01:41:08.933Z,117.95
2019-03-18T01:43:36.802Z,134.55
2019-03-18T01:46:04.568Z,131.87
2019-03-18T01:48:32.530Z,134.22
2019-03-18T01:51:00.398Z,127.85
2019-03-18T01:53:28.673Z,129.95
2019-03-18T01:55:56.450Z,127.10
2019-03-18T01:58:24.197Z,126.72
2019-03-18T02:00:52.580Z,131.45
2019-03-18T02:03:20.240Z,127.35
2019-03-18T02:05:48.205Z,125.95
2019-03-18T02:08:16.076Z,132.80
2019-03-18T02:10:43.843Z,128.38
2019-03-18T02:13:11.803Z,135.32
2019-03-18T02:15:39.574Z,129.10
2019-03-18T02:18:07.329Z,115.65
2019-03-18T02:20:35.303Z,127.15
2019-03-18T02:23:03.068Z,123.92
2019-03-18T02:25:30.843Z,121.30
2019-03-18T02:27:58.598Z,115.17
2019-03-18T02:30:26.359Z,105.70
2019-03-18T02:32:54.120Z,112.03
2019-03-18T02:35:22.097Z,130.03
2019-03-18T02:37:49.969Z,110.17
2019-03-18T02:40:17.724Z,116.12
2019-03-18T02:42:45.482Z,110.72
2019-03-18T02:45:13.250Z,116.67
2019-03-18T02:47:41.027Z,126.75
2019-03-18T02:50:08.672Z,125.55
2019-03-18T02:52:37.156Z,119.50
2019-03-18T02:55:06.144Z,116.45
2019-03-18T02:57:33.813Z,114.03
2019-03-18T03:00:01.689Z,123.10
2019-03-18T03:02:30.780Z,129.42
2019-03-18T03:04:58.738Z,128.60
2019-03-18T03:07:26.508Z,142.93
2019-03-18T03:09:54.271Z,119.75
2019-03-18T03:12:22.028Z,118.10
2019-03-18T03:14:49.790Z,131.12
2019-03-18T03:17:21.419Z,121.65
2019-03-18T03:19:47.260Z,151.63
2019-03-18T03:22:15.027Z,125.22
2019-03-18T03:24:42.804Z,130.00
2019-03-18T03:27:10.557Z,121.02
2019-03-18T03:29:38.228Z,128.82
2019-03-18T03:32:05.986Z,127.32
2019-03-18T03:34:33.770Z,119.02
2019-03-18T03:37:01.714Z,121.37
2019-03-18T03:39:29.680Z,114.45
2019-03-18T03:41:57.455Z,121.62
2019-03-18T03:44:25.107Z,117.70
2019-03-18T03:46:52.866Z,119.93
2019-03-18T03:49:20.636Z,111.90
2019-03-18T03:51:48.504Z,121.95
2019-03-18T03:54:17.191Z,129.20
2019-03-18T03:56:44.738Z,122.55
2019-03-18T03:59:12.513Z,127.78
2019-03-18T04:01:41.603Z,132.87
2019-03-18T04:04:09.371Z,127.97
2019-03-18T04:06:37.336Z,128.80
2019-03-18T04:09:05.308Z,129.72
2019-03-18T04:11:33.281Z,121.28
2019-03-18T04:14:01.645Z,112.83
2019-03-18T04:16:29.616Z,115.32
2019-03-18T04:18:57.389Z,121.33
2019-03-18T04:21:25.363Z,116.30
2019-03-18T04:23:53.216Z,125.40
2019-03-18T04:26:21.289Z,121.60
2019-03-18T04:28:49.157Z,112.37
2019-03-18T04:31:17.225Z,122.20
2019-03-18T04:33:45.195Z,130.95
2019-03-18T04:36:13.265Z,133.27
2019-03-18T04:38:42.258Z,132.60
2019-03-18T04:41:10.224Z,133.22
2019-03-18T04:43:38.192Z,125.65
2019-03-18T04:46:06.669Z,127.20
2019-03-18T04:48:34.848Z,126.75
2019-03-18T04:51:02.823Z,131.05
2019-03-18T04:53:31.095Z,118.50
2019-03-18T04:55:59.057Z,120.02
2019-03-18T04:58:28.164Z,116.08
2019-03-18T05:00:56.430Z,110.55
2019-03-18T05:03:24.714Z,98.65
2019-03-18T05:05:52.674Z,98.87
2019-03-18T05:08:20.643Z,105.00
2019-03-18T05:10:48.613Z,111.10
2019-03-18T05:13:16.679Z,106.58
2019-03-18T05:15:44.752Z,131.15
2019-03-18T05:18:13.456Z,114.10
2019-03-18T05:20:41.510Z,117.95
2019-03-18T05:23:09.479Z,143.10
2019-03-18T05:25:37.562Z,145.32
2019-03-18T05:28:05.725Z,125.27
2019-03-18T05:30:33.797Z,127.65
2019-03-18T05:33:01.861Z,124.45
2019-03-18T05:35:29.933Z,125.18
2019-03-18T05:37:57.902Z,120.40
2019-03-18T05:40:25.975Z,121.55
2019-03-18T05:42:53.937Z,127.15
2019-03-18T05:45:21.916Z,136.92
2019-03-18T05:47:49.980Z,134.37
2019-03-18T05:50:17.952Z,140.60
2019-03-18T05:52:46.029Z,136.43
2019-03-18T05:55:14.397Z,145.70
2019-03-18T05:57:42.117Z,106.87
2019-03-18T06:00:11.357Z,119.55
2019-03-18T06:02:39.535Z,117.50
2019-03-18T06:05:07.303Z,118.50
2019-03-18T06:07:36.303Z,106.50
2019-03-18T06:10:07.232Z,107.27
2019-03-18T06:12:35.300Z,103.15
2019-03-18T06:15:06.463Z,115.82
2019-03-18T06:17:34.010Z,97.75
2019-03-18T06:20:03.314Z,79.90
2019-03-18T06:22:30.755Z,70.75
2019-03-18T06:24:58.725Z,58.17
2019-03-18T06:27:26.589Z,71.22
2019-03-18T06:29:54.557Z,64.27
2019-03-18T06:32:22.531Z,65.95
2019-03-18T06:34:50.392Z,61.25
2019-03-18T06:37:18.572Z,60.12
2019-03-18T06:39:46.638Z,63.30
2019-03-18T06:42:14.613Z,81.25
2019-03-18T06:44:42.576Z,55.50
2019-03-18T06:47:10.598Z,58.42
2019-03-18T06:49:38.612Z,72.30
2019-03-18T06:52:06.687Z,86.22
2019-03-18T06:54:34.962Z,73.42
2019-03-18T06:57:03.853Z,58.55
2019-03-18T06:59:32.131Z,67.12
2019-03-18T07:02:00.198Z,55.63
2019-03-18T07:04:27.758Z,56.73
2019-03-18T07:06:55.736Z,55.92
2019-03-18T07:09:23.692Z,62.27
2019-03-18T07:11:51.660Z,54.40
2019-03-18T07:14:19.631Z,54.75
2019-03-18T07:16:47.599Z,68.12
2019-03-18T07:19:15.568Z,57.58
2019-03-18T07:21:43.558Z,60.00
2019-03-18T07:24:11.506Z,58.75
2019-03-18T07:26:39.577Z,58.08
2019-03-18T07:29:07.339Z,56.35
2019-03-18T07:31:35.411Z,49.75
2019-03-18T07:34:03.390Z,50.10
2019-03-18T07:36:31.348Z,51.33
2019-03-18T07:38:59.313Z,62.98
2019-03-18T07:41:27.210Z,65.72
2019-03-18T07:43:55.252Z,57.98
2019-03-18T07:46:23.223Z,52.50
2019-03-18T07:48:51.188Z,55.75
2019-03-18T07:51:19.059Z,52.75
2019-03-18T07:53:47.850Z,56.53
2019-03-18T07:56:15.404Z,56.28
2019-03-18T07:58:43.478Z,91.47
2019-03-18T08:01:11.867Z,51.40
2019-03-18T08:03:41.566Z,52.05
2019-03-18T08:06:09.528Z,68.57
2019-03-18T08:08:37.612Z,61.70
2019-03-18T08:11:05.568Z,72.78
2019-03-18T08:13:33.534Z,72.60
2019-03-18T08:16:01.403Z,72.70
2019-03-18T08:18:29.779Z,66.35
2019-03-18T08:20:57.753Z,68.87
2019-03-18T08:23:25.820Z,71.40
2019-03-18T08:25:53.901Z,65.22
2019-03-18T08:28:22.000Z,57.35
2019-03-18T08:30:49.931Z,65.57
2019-03-18T08:33:17.903Z,64.87
2019-03-18T08:35:46.808Z,60.15
2019-03-18T08:38:14.968Z,52.95
2019-03-18T08:40:42.729Z,48.30
2019-03-18T08:43:10.692Z,47.17
2019-03-18T08:45:38.669Z,43.15
2019-03-18T08:48:06.637Z,40.70
2019-03-18T08:50:34.811Z,34.70
2019-03-18T08:53:03.189Z,35.68
2019-03-18T08:55:31.052Z,47.25
2019-03-18T08:57:59.228Z,48.10
2019-03-18T09:00:27.299Z,36.65
2019-03-18T09:02:56.455Z,41.55
2019-03-18T09:05:24.255Z,42.43
2019-03-18T09:07:52.244Z,45.08
2019-03-18T09:10:20.196Z,47.05
2019-03-18T09:12:48.160Z,39.95
2019-03-18T09:15:16.030Z,37.65
2019-03-18T09:17:45.019Z,40.63
2019-03-18T09:20:14.323Z,41.45
2019-03-18T09:22:42.187Z,41.45
2019-03-18T09:25:10.672Z,35.63
2019-03-18T09:27:39.248Z,37.48
2019-03-18T09:30:16.227Z,34.70
2019-03-18T09:32:43.786Z,32.25
2019-03-18T09:35:11.865Z,28.75
2019-03-18T09:37:40.032Z,30.90
2019-03-18T09:40:11.072Z,37.75
2019-03-18T09:42:38.947Z,31.57
2019-03-18T09:45:09.872Z,27.37
2019-03-18T09:47:37.640Z,35.15
2019-03-18T09:50:07.148Z,29.10
2019-03-18T09:52:34.808Z,24.02
2019-03-18T09:55:05.182Z,22.35
2019-03-18T09:57:33.102Z,19.82
2019-03-18T10:00:00.974Z,24.32
2019-03-18T10:02:29.138Z,16.40
2019-03-18T10:04:57.003Z,15.23
2019-03-18T10:07:25.072Z,17.77
2019-03-18T10:09:53.059Z,14.40
2019-03-18T10:12:21.111Z,14.93
2019-03-18T10:14:49.084Z,12.60
2019-03-18T10:17:17.050Z,13.22
2019-03-18T10:19:45.021Z,15.32
2019-03-18T10:22:12.984Z,14.80
2019-03-18T10:24:40.955Z,25.40
2019-03-18T10:27:09.006Z,14.93
2019-03-18T10:29:36.998Z,13.03
2019-03-18T10:32:05.082Z,16.70
2019-03-18T10:34:33.036Z,14.90
2019-03-18T10:37:01.111Z,19.02
2019-03-18T10:39:29.278Z,15.88
2019-03-18T10:41:57.248Z,14.20
2019-03-18T10:44:25.217Z,15.30
2019-03-18T10:46:53.189Z,24.07
2019-03-18T10:49:21.260Z,21.75
2019-03-18T10:51:49.225Z,20.65
2019-03-18T10:54:29.979Z,17.20
2019-03-18T10:56:48.035Z,18.17
2019-03-18T10:59:16.203Z,14.28
2019-03-18T11:01:44.475Z,13.22
2019-03-18T11:04:12.244Z,20.50
2019-03-18T11:06:40.218Z,14.50
2019-03-18T11:09:08.282Z,16.42
2019-03-18T11:11:36.255Z,16.62
2019-03-18T11:14:04.319Z,13.95
2019-03-18T11:16:32.290Z,17.73
2019-03-18T11:19:00.263Z,18.95
2019-03-18T11:21:28.231Z,20.27
2019-03-18T11:23:56.192Z,16.87
2019-03-18T11:26:24.983Z,18.07
2019-03-18T11:28:52.748Z,22.07
2019-03-18T11:31:20.716Z,21.57
2019-03-18T11:33:48.788Z,30.80
2019-03-18T11:36:16.857Z,21.00
2019-03-18T11:38:44.744Z,24.12
2019-03-18T11:41:12.694Z,19.17
2019-03-18T11:43:40.663Z,13.98
2019-03-18T11:46:10.365Z,16.40
2019-03-18T11:48:38.953Z,13.80
2019-03-18T11:51:07.023Z,20.52
2019-03-18T11:53:35.300Z,21.87
2019-03-18T11:56:03.679Z,13.28
2019-03-18T11:58:31.575Z,20.80
2019-03-18T12:01:00.127Z,18.65
2019-03-18T12:03:28.200Z,15.38
2019-03-18T12:05:56.265Z,14.47
2019-03-18T12:08:24.132Z,10.93
2019-03-18T12:10:52.005Z,14.43
2019-03-18T12:13:20.993Z,12.47
2019-03-18T12:15:48.958Z,17.15
2019-03-18T12:18:17.031Z,18.87
2019-03-18T12:20:44.995Z,16.05
2019-03-18T12:23:13.171Z,12.50
2019-03-18T12:25:41.142Z,18.02
2019-03-18T12:28:09.213Z,28.23
2019-03-18T12:30:37.998Z,9.18
2019-03-18T12:33:06.055Z,20.65
2019-03-18T12:35:34.144Z,18.42
2019-03-18T12:38:02.222Z,21.75
2019-03-18T12:40:29.978Z,22.55
2019-03-18T12:42:58.664Z,24.77
2019-03-18T12:45:26.632Z,22.40
2019-03-18T12:47:55.420Z,23.55
2019-03-18T12:50:55.063Z,17.60
2019-03-18T12:55:24.353Z,17.87
2019-03-18T12:57:52.309Z,10.35
2019-03-18T13:00:29.397Z,10.23
2019-03-18T13:02:57.384Z,25.43
2019-03-18T13:05:26.871Z,13.75
2019-03-18T13:07:54.833Z,12.25
2019-03-18T13:10:23.524Z,23.80
2019-03-18T13:12:51.484Z,14.28
2019-03-18T13:15:19.676Z,41.88
2019-03-18T13:17:47.529Z,16.82
2019-03-18T13:20:20.616Z,14.78
2019-03-18T13:22:48.072Z,20.35
2019-03-18T13:25:16.144Z,15.98
2019-03-18T13:27:44.212Z,23.32
2019-03-18T13:30:16.175Z,19.37
2019-03-18T13:32:44.260Z,20.32
2019-03-18T13:35:12.726Z,26.48
2019-03-18T13:37:42.029Z,19.12
2019-03-18T13:40:14.603Z,23.22
2019-03-18T13:45:20.069Z,26.05
2019-03-18T13:47:47.931Z,20.50
2019-03-18T13:50:19.695Z,31.33
2019-03-18T13:55:15.806Z,23.12
2019-03-18T13:57:43.698Z,21.97
2019-03-18T14:00:19.343Z,30.32
2019-03-18T14:02:47.621Z,26.80
2019-03-18T14:05:16.612Z,23.35
2019-03-18T14:07:44.582Z,20.02
2019-03-18T14:10:15.316Z,31.60
2019-03-18T14:12:43.397Z,19.10
2019-03-18T14:15:13.363Z,22.75
2019-03-18T14:17:40.859Z,30.57
2019-03-18T14:20:11.383Z,23.45
2019-03-18T14:22:39.046Z,23.07
2019-03-18T14:25:08.450Z,27.58
2019-03-18T14:27:36.422Z,32.03
2019-03-18T14:30:10.953Z,37.48
2019-03-18T14:32:38.917Z,30.40
2019-03-18T14:35:07.802Z,23.22
2019-03-18T14:37:35.569Z,23.90
2019-03-18T14:40:10.497Z,19.30
2019-03-18T14:42:38.586Z,19.27
2019-03-18T14:45:19.236Z,32.17
2019-03-18T14:47:47.331Z,27.67
2019-03-18T14:50:16.192Z,26.30
2019-03-18T14:52:44.064Z,20.08
2019-03-18T14:55:14.748Z,32.05
2019-03-18T14:57:42.262Z,21.05
2019-03-18T15:00:17.040Z,19.65
2019-03-18T15:02:45.350Z,27.27
2019-03-18T15:05:14.251Z,23.32
2019-03-18T15:07:41.907Z,20.80
2019-03-18T15:10:11.819Z,34.73
2019-03-18T15:12:40.314Z,27.80
2019-03-18T15:15:12.059Z,30.48
2019-03-18T15:17:40.028Z,26.37
2019-03-18T15:20:12.372Z,22.55
2019-03-18T15:22:39.959Z,33.25
2019-03-18T15:25:13.724Z,28.80
2019-03-18T15:27:41.623Z,26.10
2019-03-18T15:30:12.364Z,41.95
2019-03-18T15:32:39.941Z,35.13
2019-03-18T15:35:09.425Z,21.95
2019-03-18T15:37:37.596Z,32.00
2019-03-18T15:40:11.913Z,31.52
2019-03-18T15:42:39.685Z,26.73
2019-03-18T15:45:10.306Z,25.65
2019-03-18T15:47:38.284Z,28.27
2019-03-18T15:50:13.038Z,33.08
2019-03-18T15:52:41.385Z,27.98
2019-03-18T15:55:09.562Z,31.00
2019-03-18T15:57:37.216Z,35.08
2019-03-18T16:00:11.128Z,37.00
2019-03-18T16:02:39.097Z,51.55
2019-03-18T16:05:07.270Z,37.17
2019-03-18T16:07:35.232Z,46.23
2019-03-18T16:10:06.288Z,51.85
2019-03-18T16:12:33.936Z,40.73
2019-03-18T16:15:01.906Z,46.13
2019-03-18T16:17:30.077Z,36.88
2019-03-18T16:19:58.057Z,34.73
2019-03-18T16:22:26.015Z,39.67
2019-03-18T16:24:54.009Z,43.08
2019-03-18T16:27:22.066Z,48.08
2019-03-18T16:29:50.022Z,29.23
2019-03-18T16:32:17.991Z,32.70
2019-03-18T16:34:45.963Z,25.48
2019-03-18T16:37:14.140Z,39.42
2019-03-18T16:39:42.311Z,36.13
2019-03-18T16:42:09.970Z,29.92
2019-03-18T16:44:38.149Z,37.25
2019-03-18T16:47:06.217Z,33.48
2019-03-18T16:49:34.078Z,33.15
2019-03-18T16:52:02.046Z,46.42
2019-03-18T16:54:30.731Z,37.75
2019-03-18T16:56:58.597Z,36.75
2019-03-18T16:59:26.565Z,54.58
2019-03-18T17:01:54.944Z,57.93
2019-03-18T17:04:23.028Z,74.80
2019-03-18T17:06:51.191Z,85.90
2019-03-18T17:09:19.259Z,85.77
2019-03-18T17:11:47.230Z,72.25
2019-03-18T17:14:15.103Z,63.17
2019-03-18T17:16:43.180Z,99.07
2019-03-18T17:19:11.255Z,101.70
2019-03-18T17:21:39.211Z,98.12
2019-03-18T17:24:07.280Z,88.60
2019-03-18T17:26:35.247Z,65.85
2019-03-18T17:29:03.932Z,72.22
2019-03-18T17:31:33.642Z,60.43
2019-03-18T17:34:01.712Z,55.85
2019-03-18T17:36:30.600Z,59.88
2019-03-18T17:38:58.576Z,53.78
2019-03-18T17:41:26.538Z,50.20
2019-03-18T17:43:54.413Z,44.85
2019-03-18T17:46:22.374Z,44.13
2019-03-18T17:48:50.344Z,47.15
2019-03-18T17:51:18.308Z,47.38
2019-03-18T17:53:46.895Z,43.83
2019-03-18T17:56:15.079Z,57.75
2019-03-18T17:58:43.033Z,46.25
2019-03-18T18:01:11.920Z,46.35
2019-03-18T18:03:39.696Z,48.78
2019-03-18T18:06:07.756Z,39.50
2019-03-18T18:08:35.837Z,51.60
2019-03-18T18:11:04.314Z,42.45
2019-03-18T18:13:32.286Z,54.10
2019-03-18T18:16:00.449Z,54.50
2019-03-18T18:18:28.735Z,50.67
2019-03-18T18:20:56.700Z,45.35
2019-03-18T18:23:24.982Z,45.75
2019-03-18T18:25:53.965Z,38.05
2019-03-18T18:28:22.141Z,45.88
2019-03-18T18:30:50.108Z,49.18
2019-03-18T18:33:18.487Z,40.38
2019-03-18T18:35:46.762Z,31.70
2019-03-18T18:38:15.139Z,36.25
2019-03-18T18:40:43.108Z,38.55
2019-03-18T18:43:11.106Z,42.73
2019-03-18T18:45:39.251Z,37.23
2019-03-18T18:48:07.329Z,34.20
2019-03-18T18:50:35.394Z,28.67
2019-03-18T18:53:03.977Z,38.23
2019-03-18T18:55:31.737Z,46.85
2019-03-18T18:58:01.558Z,56.58
2019-03-18T19:00:29.211Z,40.38
2019-03-18T19:02:57.702Z,40.45
2019-03-18T19:05:29.552Z,46.30
2019-03-18T19:07:57.864Z,47.10
2019-03-18T19:10:26.109Z,39.88
2019-03-18T19:12:54.171Z,43.28
2019-03-18T19:15:30.642Z,36.33
2019-03-18T19:17:58.409Z,44.40
2019-03-18T19:20:26.482Z,39.18
2019-03-18T19:22:54.545Z,41.90
2019-03-18T19:25:22.520Z,48.10
2019-03-18T19:27:50.493Z,43.38
2019-03-18T19:30:19.686Z,52.65
2019-03-18T19:32:47.388Z,44.98
2019-03-18T19:35:16.029Z,52.33
2019-03-18T19:37:44.696Z,41.68
2019-03-18T19:40:19.963Z,39.38
2019-03-18T19:42:47.916Z,42.03
2019-03-18T19:45:16.091Z,53.17
2019-03-18T19:47:44.374Z,66.82
2019-03-18T19:50:18.902Z,58.40
2019-03-18T19:52:46.652Z,60.10
2019-03-18T19:55:15.042Z,49.98
2019-03-18T19:57:43.005Z,61.70
2019-03-18T20:00:18.001Z,55.85
2019-03-18T20:02:46.419Z,49.00
2019-03-18T20:05:15.277Z,51.28
2019-03-18T20:07:44.001Z,56.80
2019-03-18T20:10:14.313Z,63.52
2019-03-18T20:12:41.867Z,55.52
2019-03-18T20:15:14.054Z,45.33
2019-03-18T20:17:41.544Z,50.45
2019-03-18T20:20:13.965Z,55.65
2019-03-18T20:22:41.944Z,50.17
2019-03-18T20:25:11.143Z,67.70
2019-03-18T20:27:38.796Z,54.67
2019-03-18T20:30:20.693Z,66.42
2019-03-18T20:32:48.657Z,62.03
2019-03-18T20:35:20.927Z,58.17
2019-03-18T20:40:18.712Z,62.35
2019-03-18T20:42:46.573Z,65.87
2019-03-18T20:45:17.003Z,49.83
2019-03-18T20:47:44.558Z,42.00
2019-03-18T20:50:17.234Z,51.10
2019-03-18T20:52:44.797Z,44.58
2019-03-18T20:55:14.605Z,42.50
2019-03-18T20:57:42.579Z,46.60
2019-03-18T21:00:16.587Z,49.98
2019-03-18T21:02:44.863Z,53.42
2019-03-18T21:05:12.625Z,49.05
2019-03-18T21:07:40.604Z,43.63
2019-03-18T21:10:10.718Z,42.08
2019-03-18T21:12:38.170Z,47.80
2019-03-18T21:15:08.288Z,46.23
2019-03-18T21:17:36.158Z,55.58
2019-03-18T21:20:10.474Z,50.25
2019-03-18T21:22:38.337Z,58.90
2019-03-18T21:25:07.232Z,46.58
2019-03-18T21:27:35.304Z,43.35
2019-03-18T21:30:11.769Z,49.30
2019-03-18T21:32:39.839Z,54.90
2019-03-18T21:35:08.728Z,49.10
2019-03-18T21:37:36.392Z,45.90
2019-03-18T21:40:07.948Z,47.20
2019-03-18T21:42:35.702Z,43.17
2019-03-18T21:45:06.747Z,43.52
2019-03-18T21:47:34.720Z,53.13
2019-03-18T21:50:05.144Z,51.35
2019-03-18T21:52:32.802Z,46.28
2019-03-18T21:55:01.181Z,54.55
2019-03-18T21:57:29.146Z,47.43
2019-03-18T21:59:57.613Z,43.73
2019-03-18T22:02:26.115Z,50.60
2019-03-18T22:04:54.180Z,46.80
2019-03-18T22:07:22.255Z,52.90
2019-03-18T22:09:50.223Z,44.90
2019-03-18T22:12:18.191Z,46.23
2019-03-18T22:14:46.365Z,45.10
2019-03-18T22:17:14.335Z,48.48
2019-03-18T22:19:43.022Z,41.98
2019-03-18T22:22:10.986Z,40.30
2019-03-18T22:24:45.383Z,35.98
2019-03-18T22:27:08.764Z,40.30
2019-03-18T22:29:36.631Z,37.35
2019-03-18T22:32:04.605Z,31.50
2019-03-18T22:34:32.466Z,36.65
2019-03-18T22:37:00.539Z,39.08
2019-03-18T22:39:28.607Z,35.50
2019-03-18T22:41:56.577Z,42.78
2019-03-18T22:44:24.644Z,31.55
2019-03-18T22:46:52.819Z,39.00
2019-03-18T22:49:20.894Z,43.10
2019-03-18T22:51:48.961Z,40.23
2019-03-18T22:54:17.448Z,39.25
2019-03-18T22:56:45.310Z,37.80
2019-03-18T22:59:13.277Z,26.97
2019-03-18T23:01:42.065Z,26.75
2019-03-18T23:04:10.141Z,28.83
2019-03-18T23:06:38.104Z,27.32
2019-03-18T23:09:06.075Z,33.30
2019-03-18T23:11:34.040Z,32.00
2019-03-18T23:14:02.016Z,33.90
2019-03-18T23:16:29.980Z,28.40
2019-03-18T23:18:57.847Z,27.85
2019-03-18T23:21:25.603Z,24.35
2019-03-18T23:23:53.478Z,22.02
2019-03-18T23:26:21.444Z,26.62
2019-03-18T23:28:49.310Z,25.30
2019-03-18T23:31:17.178Z,21.85
2019-03-18T23:33:45.143Z,23.60
2019-03-18T23:36:13.216Z,29.23
2019-03-18T23:38:41.182Z,23.15
2019-03-18T23:41:09.052Z,24.80
2019-03-18T23:43:36.815Z,23.50
2019-03-18T23:46:04.579Z,24.43
2019-03-18T23:48:33.365Z,27.62
2019-03-18T23:51:01.437Z,26.35
2019-03-18T23:53:30.118Z,22.75
2019-03-18T23:55:58.190Z,30.37
2019-03-18T23:58:26.064Z,27.42
